createdAt,value
2022-09-24T00:02:50.133Z,4.30
2022-09-24T00:07:37.799Z,4.07
2022-09-24T00:12:23.441Z,4.30
2022-09-24T00:17:08.464Z,4.53
2022-09-24T00:21:53.792Z,6.35
2022-09-24T00:26:53.459Z,4.43
2022-09-24T00:31:39.133Z,4.47
2022-09-24T00:36:25.704Z,4.07
2022-09-24T00:41:11.587Z,4.32
2022-09-24T00:46:07.556Z,4.10
2022-09-24T00:50:53.172Z,3.70
2022-09-24T00:55:41.401Z,4.00
2022-09-24T01:00:27.116Z,4.22
2022-09-24T01:05:15.217Z,3.95
2022-09-24T01:10:00.723Z,3.95
2022-09-24T01:15:07.135Z,4.00
2022-09-24T01:20:40.870Z,3.90
2022-09-24T01:25:36.491Z,4.60
2022-09-24T01:30:25.460Z,4.57
2022-09-24T01:35:18.415Z,5.93
2022-09-24T01:40:06.183Z,4.97
2022-09-24T01:44:52.553Z,4.43
2022-09-24T01:49:40.212Z,4.35
2022-09-24T01:54:29.737Z,4.43
2022-09-24T01:59:20.889Z,3.92
2022-09-24T02:04:11.683Z,4.27
2022-09-24T02:09:02.167Z,3.95
2022-09-24T02:13:53.867Z,4.60
2022-09-24T02:18:43.329Z,4.13
2022-09-24T02:23:31.326Z,4.30
2022-09-24T02:28:19.191Z,3.88
2022-09-24T02:33:24.813Z,3.67
2022-09-24T02:38:19.046Z,4.53
2022-09-24T02:43:04.044Z,4.30
2022-09-24T02:47:52.475Z,4.47
2022-09-24T02:52:37.521Z,4.10
2022-09-24T02:57:23.119Z,4.72
2022-09-24T03:02:08.296Z,5.90
2022-09-24T03:06:56.290Z,6.60
2022-09-24T03:11:41.303Z,6.28
2022-09-24T03:16:26.740Z,6.55
2022-09-24T03:21:15.141Z,5.88
2022-09-24T03:26:03.064Z,5.70
2022-09-24T03:31:03.258Z,5.05
2022-09-24T03:35:48.644Z,4.70
2022-09-24T03:40:33.735Z,5.18
2022-09-24T03:45:21.763Z,5.20
2022-09-24T03:50:07.369Z,5.00
2022-09-24T03:54:53.295Z,6.95
2022-09-24T03:59:38.549Z,4.90
2022-09-24T04:04:26.471Z,4.40
2022-09-24T04:09:12.088Z,4.30
2022-09-24T04:13:59.066Z,3.88
2022-09-24T04:18:44.075Z,4.50
2022-09-24T04:23:32.091Z,4.15
2022-09-24T04:28:17.086Z,4.57
2022-09-24T04:33:04.166Z,5.05
2022-09-24T04:37:50.186Z,5.40
2022-09-24T04:42:38.328Z,4.97
2022-09-24T04:47:26.099Z,4.82
2022-09-24T04:52:11.459Z,4.85
2022-09-24T04:56:56.582Z,4.80
2022-09-24T05:01:44.608Z,4.40
2022-09-24T05:06:29.911Z,4.85
2022-09-24T05:11:15.619Z,5.75
2022-09-24T05:16:01.235Z,5.32
2022-09-24T05:20:49.679Z,4.80
2022-09-24T05:25:54.759Z,4.97
2022-09-24T05:30:40.143Z,5.85
2022-09-24T05:35:26.511Z,5.90
2022-09-24T05:40:27.431Z,5.40
2022-09-24T05:45:13.451Z,5.15
2022-09-24T05:49:58.451Z,5.47
2022-09-24T05:54:43.864Z,5.93
2022-09-24T05:59:31.715Z,5.05
2022-09-24T06:04:17.212Z,5.38
2022-09-24T06:09:02.266Z,6.10
2022-09-24T06:13:47.799Z,5.82
2022-09-24T06:18:36.619Z,6.40
2022-09-24T06:23:21.951Z,5.72
2022-09-24T06:28:07.806Z,6.32
2022-09-24T06:32:53.097Z,4.97
2022-09-24T06:37:40.716Z,5.10
2022-09-24T06:42:27.616Z,4.90
2022-09-24T06:47:12.803Z,5.18
2022-09-24T06:51:58.915Z,4.90
2022-09-24T06:56:46.869Z,4.68
2022-09-24T07:01:32.538Z,5.38
2022-09-24T07:06:18.126Z,5.10
2022-09-24T07:11:03.584Z,9.50
2022-09-24T07:15:53.000Z,6.20
2022-09-24T07:20:38.781Z,5.40
2022-09-24T07:25:23.827Z,5.38
2022-09-24T07:30:11.206Z,5.30
2022-09-24T07:34:58.875Z,6.30
2022-09-24T07:39:45.764Z,5.10
2022-09-24T07:44:31.960Z,3.13
2022-09-24T07:49:17.317Z,2.42
2022-09-24T07:54:04.966Z,2.17
2022-09-24T07:58:51.524Z,2.10
2022-09-24T08:03:36.846Z,1.88
2022-09-24T08:08:22.573Z,1.70
2022-09-24T08:13:10.205Z,2.10
2022-09-24T08:17:55.666Z,1.80
2022-09-24T08:22:40.979Z,2.22
2022-09-24T08:27:26.746Z,2.13
2022-09-24T08:32:14.384Z,2.03
2022-09-24T08:37:00.424Z,1.90
2022-09-24T08:41:57.207Z,2.03
2022-09-24T08:47:03.268Z,2.00
2022-09-24T08:51:59.926Z,2.22
2022-09-24T08:56:48.806Z,1.73
2022-09-24T09:01:42.636Z,2.35
2022-09-24T09:06:57.418Z,2.03
2022-09-24T09:11:45.988Z,1.85
2022-09-24T09:16:36.225Z,1.98
2022-09-24T09:21:29.786Z,2.10
2022-09-24T09:26:18.684Z,1.90
2022-09-24T09:31:14.273Z,2.00
2022-09-24T09:36:06.497Z,1.90
2022-09-24T09:40:58.408Z,3.30
2022-09-24T09:45:58.280Z,1.83
2022-09-24T09:50:47.406Z,2.00
2022-09-24T09:55:35.657Z,2.55
2022-09-24T10:00:30.074Z,1.92
2022-09-24T10:05:28.744Z,1.73
2022-09-24T10:10:24.066Z,1.90
2022-09-24T10:15:20.868Z,2.10
2022-09-24T10:20:11.968Z,1.67
2022-09-24T10:25:03.585Z,1.90
2022-09-24T10:30:01.260Z,2.35
2022-09-24T10:34:46.319Z,1.92
2022-09-24T10:39:32.346Z,1.80
2022-09-24T10:44:21.705Z,2.17
2022-09-24T10:49:17.885Z,1.70
2022-09-24T10:54:21.001Z,2.83
2022-09-24T10:59:25.808Z,5.20
2022-09-24T11:04:38.633Z,8.77
2022-09-24T11:09:31.686Z,8.50
2022-09-24T11:14:33.978Z,7.85
2022-09-24T11:19:38.508Z,11.73
2022-09-24T11:24:48.730Z,2.40
2022-09-24T11:29:51.757Z,6.40
2022-09-24T11:35:06.602Z,2.92
2022-09-24T11:40:07.818Z,2.10
2022-09-24T11:45:21.249Z,1.70
2022-09-24T11:50:29.238Z,1.70
2022-09-24T11:55:21.922Z,1.88
2022-09-24T12:00:17.853Z,2.03
2022-09-24T12:05:07.717Z,2.38
2022-09-24T12:09:58.925Z,1.90
2022-09-24T12:19:45.019Z,2.20
2022-09-24T12:24:34.868Z,2.03
2022-09-24T12:29:48.443Z,1.58
2022-09-24T12:34:46.123Z,1.70
2022-09-24T12:39:36.520Z,1.80
2022-09-24T12:44:29.787Z,1.90
2022-09-24T12:49:28.040Z,2.10
2022-09-24T12:54:28.020Z,2.15
2022-09-24T12:59:27.674Z,2.70
2022-09-24T13:04:31.857Z,2.20
2022-09-24T13:09:36.104Z,2.13
2022-09-24T13:14:27.342Z,2.60
2022-09-24T13:19:28.114Z,2.80
2022-09-24T13:24:14.859Z,2.80
2022-09-24T13:29:04.354Z,2.95
2022-09-24T13:33:55.113Z,2.97
2022-09-24T13:38:45.009Z,2.58
2022-09-24T13:43:40.308Z,2.92
2022-09-24T13:48:34.905Z,3.30
2022-09-24T13:53:23.432Z,4.03
2022-09-24T13:58:08.563Z,3.38
2022-09-24T14:03:01.219Z,3.75
2022-09-24T14:07:56.905Z,3.10
2022-09-24T14:12:42.599Z,3.13
2022-09-24T14:17:28.475Z,3.55
2022-09-24T14:22:19.395Z,2.88
2022-09-24T14:27:10.460Z,3.03
2022-09-24T14:32:01.303Z,2.70
2022-09-24T14:36:46.418Z,2.80
2022-09-24T14:41:35.245Z,3.20
2022-09-24T14:46:27.945Z,2.63
2022-09-24T14:51:26.952Z,2.80
2022-09-24T14:56:22.750Z,2.67
2022-09-24T15:01:16.781Z,2.50
2022-09-24T15:06:11.114Z,2.75
2022-09-24T15:10:57.723Z,2.40
2022-09-24T15:15:43.574Z,2.55
2022-09-24T15:20:29.001Z,2.55
2022-09-24T15:25:17.399Z,2.88
2022-09-24T15:30:05.252Z,3.28
2022-09-24T15:34:50.840Z,4.55
2022-09-24T15:39:36.124Z,3.22
2022-09-24T15:44:31.257Z,3.50
2022-09-24T15:49:21.995Z,2.95
2022-09-24T15:54:07.417Z,2.97
2022-09-24T15:58:53.663Z,2.88
2022-09-24T16:03:41.266Z,2.60
2022-09-24T16:08:26.737Z,2.45
2022-09-24T16:13:12.286Z,2.60
2022-09-24T16:17:57.578Z,2.75
2022-09-24T16:22:45.231Z,2.08
2022-09-24T16:27:31.749Z,2.28
2022-09-24T16:32:16.784Z,2.22
2022-09-24T16:37:02.077Z,2.22
2022-09-24T16:41:51.181Z,2.17
2022-09-24T16:46:37.280Z,1.65
2022-09-24T16:51:22.364Z,1.80
2022-09-24T16:56:09.323Z,1.70
2022-09-24T17:00:56.918Z,1.88
2022-09-24T17:05:43.118Z,2.22
2022-09-24T17:10:28.599Z,1.83
2022-09-24T17:15:20.076Z,1.63
2022-09-24T17:20:08.563Z,1.75
2022-09-24T17:24:53.923Z,1.73
2022-09-24T17:29:39.009Z,1.80
2022-09-24T17:34:24.278Z,1.60
2022-09-24T17:39:12.241Z,1.90
2022-09-24T17:43:58.797Z,1.90
2022-09-24T17:48:45.622Z,2.10
2022-09-24T17:53:34.241Z,2.10
2022-09-24T17:58:22.711Z,1.98
2022-09-24T18:03:08.060Z,2.10
2022-09-24T18:07:53.146Z,2.33
2022-09-24T18:12:38.399Z,2.00
2022-09-24T18:17:26.028Z,5.20
2022-09-24T18:22:11.794Z,2.53
2022-09-24T18:26:56.803Z,1.85
2022-09-24T18:31:42.574Z,1.90
2022-09-24T18:36:30.827Z,2.22
2022-09-24T18:41:18.115Z,1.75
2022-09-24T18:46:06.502Z,1.60
2022-09-24T18:50:51.983Z,1.80
2022-09-24T18:55:40.864Z,1.80
2022-09-24T19:00:38.499Z,1.58
2022-09-24T19:05:23.695Z,1.90
2022-09-24T19:10:10.677Z,1.70
2022-09-24T19:15:00.512Z,1.60
2022-09-24T19:19:52.174Z,1.98
2022-09-24T19:24:37.526Z,1.80
2022-09-24T19:29:25.505Z,7.07
2022-09-24T19:34:15.381Z,2.20
2022-09-24T19:39:01.568Z,1.88
2022-09-24T19:43:47.078Z,1.67
2022-09-24T19:48:34.299Z,1.98
2022-09-24T19:53:22.145Z,1.80
2022-09-24T19:58:07.851Z,1.60
2022-09-24T20:02:53.189Z,3.13
2022-09-24T20:07:38.582Z,1.90
2022-09-24T20:12:26.183Z,2.05
2022-09-24T20:17:11.574Z,2.30
2022-09-24T20:21:57.615Z,1.88
2022-09-24T20:26:55.264Z,2.15
2022-09-24T20:31:52.100Z,1.90
2022-09-24T20:36:37.964Z,2.20
2022-09-24T20:41:24.789Z,2.15
2022-09-24T20:46:14.411Z,2.50
2022-09-24T20:51:02.125Z,2.58
2022-09-24T20:55:47.398Z,2.75
2022-09-24T21:00:35.897Z,2.60
2022-09-24T21:05:21.226Z,2.70
2022-09-24T21:10:13.176Z,2.45
2022-09-24T21:14:59.740Z,2.83
2022-09-24T21:19:44.746Z,2.90
2022-09-24T21:24:31.569Z,3.47
2022-09-24T21:29:21.086Z,2.97
2022-09-24T21:34:07.114Z,2.75
2022-09-24T21:38:56.974Z,3.38
2022-09-24T21:43:42.302Z,2.60
2022-09-24T21:48:30.166Z,2.53
2022-09-24T21:53:15.639Z,2.80
2022-09-24T21:58:00.649Z,3.05
2022-09-24T22:02:45.938Z,3.35
2022-09-24T22:07:33.945Z,3.58
2022-09-24T22:12:19.352Z,2.97
2022-09-24T22:17:07.189Z,3.55
2022-09-24T22:21:52.507Z,3.30
2022-09-24T22:26:40.748Z,3.20
2022-09-24T22:31:26.131Z,3.75
2022-09-24T22:36:11.600Z,4.35
2022-09-24T22:40:56.798Z,2.92
2022-09-24T22:45:45.335Z,3.47
2022-09-24T22:50:30.443Z,2.85
2022-09-24T22:55:15.830Z,2.47
2022-09-24T23:00:01.692Z,2.28
2022-09-24T23:04:49.887Z,2.75
2022-09-24T23:09:34.954Z,2.35
2022-09-24T23:14:20.774Z,2.70
2022-09-24T23:19:08.224Z,2.28
2022-09-24T23:24:00.159Z,2.50
2022-09-24T23:28:45.817Z,2.63
2022-09-24T23:33:35.151Z,2.33
2022-09-24T23:38:20.352Z,2.25
2022-09-24T23:43:08.386Z,2.20
2022-09-24T23:47:53.395Z,2.30
2022-09-24T23:52:38.725Z,2.17
2022-09-24T23:57:23.762Z,2.05
